< < Back
Terminal Aerodrome Forecast


Current Version              Previous Versions:   1  2  3  4  5  6  7  8  9  

Terminal Aerodrome Forecast

181
FTUS44 KMOB 240800 AAA
TAFPNS
TAF AMD
KPNS 240810Z 2408/2506 00000KT 6SM BR BKN070
      TEMPO 2409/2412 1SM BR
     FM241500 18010KT P6SM FEW040 SCT250=



Latest METAR

361
SAUS70 KWBC 250100 RRI
MTRPNS
METAR KPNS 250053Z 18008KT 10SM FEW011 21/18 A2992 RMK AO2 SLP132
T02060178


USA.gov is the U.S. government's official web portal to all federal, state and local government web resources and services.